Time;durP1;ratioP1;P1;durP2;ratioP2;P2;SDS_P1;SDS_P2;PMS_P1;PMS_P2;Temp;Humidity;BMP_temperature;BMP_pressure;BME280_temperature;BME280_humidity;BME280_pressure;Samples;Min_cycle;Max_cycle;Signal;HPM_P1;HPM_P2
2022/09/25 00:01:06;;;;;;;7.75;1.70;;;;;;;;;;4987431;28;20691;-67
2022/09/25 00:03:31;;;;;;;11.52;1.98;;;;;;;;;;4987587;28;20264;-65
2022/09/25 00:06:01;;;;;;;7.38;1.67;;;;;;;;;;4966197;28;20213;-66
2022/09/25 00:08:26;;;;;;;6.95;1.42;;;;;;;;;;4967978;28;20245;-66
2022/09/25 00:10:52;;;;;;;7.40;1.80;;;;;;;;;;4969303;28;20305;-65
2022/09/25 00:13:18;;;;;;;12.73;1.90;;;;;;;;;;4977503;28;20769;-66
2022/09/25 00:15:45;;;;;;;9.65;1.70;;;;;;;;;;4958010;28;20423;-66
2022/09/25 00:18:10;;;;;;;8.73;2.35;;;;;;;;;;4957360;28;20210;-66
2022/09/25 00:20:36;;;;;;;12.30;2.35;;;;;;;;;;4958159;28;20216;-66
2022/09/25 00:23:01;;;;;;;7.93;2.10;;;;;;;;;;4959515;28;20217;-65
2022/09/25 00:25:27;;;;;;;6.78;1.73;;;;;;;;;;4957475;28;20708;-66
2022/09/25 00:27:52;;;;;;;9.55;2.40;;;;;;;;;;4951958;28;20308;-66
2022/09/25 00:30:18;;;;;;;7.68;1.52;;;;;;;;;;4950770;28;20221;-65
2022/09/25 00:32:43;;;;;;;10.73;1.90;;;;;;;;;;4950635;28;20500;-66
2022/09/25 00:35:08;;;;;;;7.38;1.92;;;;;;;;;;4957399;28;20209;-66
2022/09/25 00:37:35;;;;;;;7.03;1.60;;;;;;;;;;4958430;28;20766;-66
2022/09/25 00:40:00;;;;;;;6.63;1.75;;;;;;;;;;4963506;28;20237;-66
2022/09/25 00:42:26;;;;;;;7.65;1.70;;;;;;;;;;4977394;28;20526;-66
2022/09/25 00:44:55;;;;;;;11.20;1.90;;;;;;;;;;4977697;28;20754;-66
2022/09/25 00:47:23;;;;;;;11.63;1.70;;;;;;;;;;4976466;28;20209;-66
2022/09/25 00:49:48;;;;;;;11.93;1.90;;;;;;;;;;4973232;28;20213;-66
2022/09/25 00:52:14;;;;;;;8.55;1.90;;;;;;;;;;4973175;28;20603;-66
2022/09/25 00:54:40;;;;;;;10.07;1.98;;;;;;;;;;4973539;28;20209;-66
2022/09/25 00:57:07;;;;;;;8.65;1.90;;;;;;;;;;4973391;28;20235;-66
2022/09/25 00:59:35;;;;;;;9.85;2.10;;;;;;;;;;4978698;28;20572;-66
2022/09/25 01:02:01;;;;;;;12.50;2.20;;;;;;;;;;4981001;28;20327;-65
2022/09/25 01:04:26;;;;;;;10.00;1.90;;;;;;;;;;4981105;28;20436;-66
2022/09/25 01:06:51;;;;;;;7.88;1.63;;;;;;;;;;4980380;28;20243;-66
2022/09/25 01:09:17;;;;;;;5.72;1.85;;;;;;;;;;4976394;28;20206;-65
2022/09/25 01:11:44;;;;;;;9.73;1.83;;;;;;;;;;4958528;28;20226;-66
2022/09/25 01:14:09;;;;;;;10.45;1.80;;;;;;;;;;4962709;28;20600;-66
2022/09/25 01:16:41;;;;;;;6.15;1.60;;;;;;;;;;4972135;28;20807;-66
2022/09/25 01:19:14;;;;;;;7.15;1.60;;;;;;;;;;4962374;28;20206;-66
2022/09/25 01:21:45;;;;;;;8.02;1.73;;;;;;;;;;4978348;28;20216;-66
2022/09/25 01:24:29;;;;;;;7.63;1.60;;;;;;;;;;4963976;28;20261;-66
2022/09/25 01:26:55;;;;;;;10.63;1.80;;;;;;;;;;4978819;28;20783;-66
2022/09/25 01:29:22;;;;;;;10.40;1.80;;;;;;;;;;4979472;28;20224;-66
2022/09/25 01:31:47;;;;;;;7.13;1.80;;;;;;;;;;4980743;28;20247;-66
2022/09/25 01:34:18;;;;;;;12.05;1.90;;;;;;;;;;4977681;28;20703;-66
2022/09/25 01:36:47;;;;;;;4.93;1.45;;;;;;;;;;4971683;28;20244;-66
2022/09/25 01:39:16;;;;;;;9.27;2.00;;;;;;;;;;4972638;28;20212;-67
2022/09/25 01:41:44;;;;;;;6.82;1.38;;;;;;;;;;4973420;28;20895;-66
2022/09/25 01:44:12;;;;;;;7.05;1.50;;;;;;;;;;4980089;28;20201;-66
2022/09/25 01:46:42;;;;;;;9.65;1.75;;;;;;;;;;4978704;28;20209;-66
2022/09/25 01:49:10;;;;;;;8.57;1.60;;;;;;;;;;4978873;28;20684;-65
2022/09/25 01:51:38;;;;;;;7.63;1.35;;;;;;;;;;4977494;28;20767;-66
2022/09/25 01:54:06;;;;;;;8.60;1.63;;;;;;;;;;4977471;28;20702;-66
2022/09/25 01:56:33;;;;;;;6.90;1.88;;;;;;;;;;4973108;28;20432;-66
2022/09/25 01:58:59;;;;;;;6.93;1.27;;;;;;;;;;4954660;28;20258;-66
2022/09/25 02:01:26;;;;;;;9.57;1.63;;;;;;;;;;4969643;28;20291;-66
2022/09/25 02:03:56;;;;;;;9.75;1.33;;;;;;;;;;4974011;28;20213;-66
2022/09/25 02:06:21;;;;;;;7.93;1.40;;;;;;;;;;4977364;28;20217;-65
2022/09/25 02:08:48;;;;;;;7.07;1.25;;;;;;;;;;4979167;28;20220;-67
2022/09/25 02:11:13;;;;;;;9.40;1.40;;;;;;;;;;4957296;28;20747;-67
2022/09/25 02:13:40;;;;;;;5.25;1.52;;;;;;;;;;4973300;28;20305;-67
2022/09/25 02:16:08;;;;;;;11.20;1.50;;;;;;;;;;4959290;28;20213;-67
2022/09/25 02:21:37;;;;;;;10.02;1.55;;;;;;;;;;4970639;28;20220;-67
2022/09/25 02:24:04;;;;;;;10.70;2.00;;;;;;;;;;4966247;28;20300;-67
2022/09/25 02:26:30;;;;;;;5.80;1.20;;;;;;;;;;4972199;28;20224;-67
2022/09/25 02:28:55;;;;;;;8.90;1.20;;;;;;;;;;4979401;28;20209;-67
2022/09/25 02:31:21;;;;;;;6.82;1.10;;;;;;;;;;4978526;28;20256;-67
2022/09/25 02:33:48;;;;;;;6.80;1.23;;;;;;;;;;4977937;28;20646;-67
2022/09/25 02:36:19;;;;;;;9.68;2.15;;;;;;;;;;4977315;28;20217;-67
2022/09/25 02:38:45;;;;;;;5.72;1.35;;;;;;;;;;4977833;28;20265;-67
2022/09/25 02:41:16;;;;;;;5.05;1.13;;;;;;;;;;4980784;28;20742;-67
2022/09/25 02:43:44;;;;;;;4.65;1.20;;;;;;;;;;4974980;28;20315;-67
2022/09/25 02:46:10;;;;;;;8.00;2.00;;;;;;;;;;4973352;28;20201;-67
2022/09/25 02:48:48;;;;;;;6.53;1.40;;;;;;;;;;4974410;28;20615;-67
2022/09/25 02:51:13;;;;;;;5.55;1.20;;;;;;;;;;4981052;28;20304;-67
2022/09/25 02:53:40;;;;;;;7.63;1.67;;;;;;;;;;4980732;28;20782;-67
2022/09/25 02:56:13;;;;;;;8.60;1.27;;;;;;;;;;4978756;28;20325;-67
2022/09/25 02:58:38;;;;;;;5.05;1.35;;;;;;;;;;4982632;28;20205;-67
2022/09/25 03:01:04;;;;;;;5.68;1.17;;;;;;;;;;4980481;28;20666;-67
2022/09/25 03:03:30;;;;;;;10.25;1.50;;;;;;;;;;4982438;28;20217;-67
2022/09/25 03:05:55;;;;;;;8.43;1.40;;;;;;;;;;4975834;28;20217;-67
2022/09/25 03:08:37;;;;;;;7.90;1.40;;;;;;;;;;4974221;28;20220;-67
2022/09/25 03:11:04;;;;;;;3.55;1.02;;;;;;;;;;4957248;28;20229;-67
2022/09/25 03:13:30;;;;;;;9.00;1.55;;;;;;;;;;4965290;28;20593;-67
2022/09/25 03:15:58;;;;;;;7.75;1.30;;;;;;;;;;4982619;28;20209;-67
2022/09/25 03:18:24;;;;;;;6.63;1.20;;;;;;;;;;4974207;28;20296;-67
2022/09/25 03:20:50;;;;;;;11.65;1.70;;;;;;;;;;4963543;28;20214;-67
2022/09/25 03:23:15;;;;;;;7.38;1.80;;;;;;;;;;4972779;28;20210;-67
2022/09/25 03:25:40;;;;;;;5.57;1.20;;;;;;;;;;4964826;28;20329;-67
2022/09/25 03:28:08;;;;;;;7.25;1.52;;;;;;;;;;4976918;28;20903;-67
2022/09/25 03:30:33;;;;;;;5.18;1.25;;;;;;;;;;4975706;28;20221;-67
2022/09/25 03:32:58;;;;;;;4.45;1.45;;;;;;;;;;4975446;28;20227;-67
2022/09/25 03:35:24;;;;;;;10.30;1.40;;;;;;;;;;4980212;28;20613;-67
2022/09/25 03:37:49;;;;;;;10.05;1.67;;;;;;;;;;4983672;28;20217;-67
2022/09/25 03:40:15;;;;;;;6.13;1.20;;;;;;;;;;4983240;28;20251;-67
2022/09/25 03:42:42;;;;;;;10.13;1.85;;;;;;;;;;4983411;28;20634;-67
2022/09/25 03:45:08;;;;;;;5.30;1.20;;;;;;;;;;4983134;28;20315;-67
2022/09/25 03:47:34;;;;;;;8.43;1.50;;;;;;;;;;4983460;28;20569;-67
2022/09/25 03:49:59;;;;;;;7.05;1.30;;;;;;;;;;4979932;28;20687;-67
2022/09/25 03:52:24;;;;;;;10.63;1.40;;;;;;;;;;4975310;28;20221;-67
2022/09/25 03:54:50;;;;;;;10.48;1.55;;;;;;;;;;4975555;28;20209;-67
2022/09/25 03:57:15;;;;;;;7.90;1.20;;;;;;;;;;4966767;28;20220;-67
2022/09/25 03:59:40;;;;;;;9.68;1.35;;;;;;;;;;4964394;28;20248;-67
2022/09/25 04:02:06;;;;;;;6.80;1.58;;;;;;;;;;4964156;28;20218;-67
2022/09/25 04:04:31;;;;;;;5.22;1.30;;;;;;;;;;4964274;28;20755;-67
2022/09/25 04:06:56;;;;;;;8.88;1.45;;;;;;;;;;4964685;28;20225;-67
2022/09/25 04:09:22;;;;;;;8.35;1.40;;;;;;;;;;4963416;28;20217;-67
2022/09/25 04:11:47;;;;;;;8.18;1.30;;;;;;;;;;4963965;28;20232;-67
2022/09/25 04:14:13;;;;;;;6.00;1.40;;;;;;;;;;4965819;28;20758;-67
2022/09/25 04:16:39;;;;;;;8.30;1.42;;;;;;;;;;4975117;28;20700;-67
2022/09/25 04:19:04;;;;;;;5.07;1.15;;;;;;;;;;4961626;28;20641;-67
2022/09/25 04:21:29;;;;;;;10.52;1.95;;;;;;;;;;4964000;28;20252;-67
2022/09/25 04:26:38;;;;;;;6.13;1.23;;;;;;;;;;4982173;28;20575;-67
2022/09/25 04:29:04;;;;;;;9.98;1.27;;;;;;;;;;4982463;28;20217;-67
2022/09/25 04:31:29;;;;;;;6.82;1.10;;;;;;;;;;4982513;28;20232;-67
2022/09/25 04:33:54;;;;;;;9.07;1.30;;;;;;;;;;4982519;28;20303;-67
2022/09/25 04:36:20;;;;;;;8.35;1.40;;;;;;;;;;4976613;28;20231;-67
2022/09/25 04:38:46;;;;;;;6.15;1.42;;;;;;;;;;4974444;28;20216;-67
2022/09/25 04:41:12;;;;;;;8.65;1.35;;;;;;;;;;4974800;28;20243;-67
2022/09/25 04:43:38;;;;;;;9.20;1.40;;;;;;;;;;4981626;28;20218;-67
2022/09/25 04:46:04;;;;;;;7.32;1.60;;;;;;;;;;4980295;28;20213;-67
2022/09/25 04:48:30;;;;;;;6.55;1.60;;;;;;;;;;4982750;28;20213;-67
2022/09/25 04:50:57;;;;;;;3.75;1.20;;;;;;;;;;4982752;28;20216;-67
2022/09/25 04:53:22;;;;;;;6.80;1.23;;;;;;;;;;4981404;28;20324;-67
2022/09/25 04:55:47;;;;;;;8.35;1.58;;;;;;;;;;4982911;28;20229;-67
2022/09/25 04:58:13;;;;;;;7.63;1.52;;;;;;;;;;4960131;28;20287;-67
2022/09/25 05:00:39;;;;;;;6.00;1.25;;;;;;;;;;4954673;28;20405;-67
2022/09/25 05:03:05;;;;;;;5.75;1.35;;;;;;;;;;4962056;28;20885;-67
2022/09/25 05:05:30;;;;;;;6.47;1.30;;;;;;;;;;4959473;28;20252;-67
2022/09/25 05:07:56;;;;;;;7.20;1.30;;;;;;;;;;4963441;28;20217;-67
2022/09/25 05:10:24;;;;;;;8.27;1.58;;;;;;;;;;4963463;28;20835;-67
2022/09/25 05:12:53;;;;;;;7.28;1.20;;;;;;;;;;4982462;28;20657;-67
2022/09/25 05:15:19;;;;;;;5.20;1.02;;;;;;;;;;4963974;28;20232;-67
2022/09/25 05:17:44;;;;;;;10.52;1.33;;;;;;;;;;4972965;28;20213;-68
2022/09/25 05:20:10;;;;;;;8.82;1.20;;;;;;;;;;4990902;28;20579;-67
2022/09/25 05:22:35;;;;;;;5.47;1.00;;;;;;;;;;4992104;28;20256;-68
2022/09/25 05:25:00;;;;;;;6.05;1.20;;;;;;;;;;4991415;28;20197;-65
2022/09/25 05:27:26;;;;;;;7.13;1.10;;;;;;;;;;4990999;28;20240;-66
2022/09/25 05:29:51;;;;;;;6.93;1.42;;;;;;;;;;4992335;28;20236;-65
2022/09/25 05:32:17;;;;;;;6.97;1.50;;;;;;;;;;4991152;28;20708;-64
2022/09/25 05:34:43;;;;;;;11.57;1.60;;;;;;;;;;4991555;28;20205;-66
2022/09/25 05:37:08;;;;;;;7.27;1.50;;;;;;;;;;4992179;28;20768;-65
2022/09/25 05:39:33;;;;;;;8.90;1.30;;;;;;;;;;4979387;28;20224;-65
2022/09/25 05:41:58;;;;;;;5.82;1.00;;;;;;;;;;4970832;28;20292;-66
2022/09/25 05:44:27;;;;;;;8.32;1.00;;;;;;;;;;4964053;28;20209;-66
2022/09/25 05:46:55;;;;;;;5.93;1.20;;;;;;;;;;4966895;28;20212;-65
2022/09/25 05:49:20;;;;;;;7.07;1.20;;;;;;;;;;4973338;28;22555;-67
2022/09/25 05:51:47;;;;;;;7.72;1.73;;;;;;;;;;4971055;28;20242;-66
2022/09/25 05:54:12;;;;;;;5.75;1.35;;;;;;;;;;4976420;28;20227;-64
2022/09/25 05:56:37;;;;;;;9.25;1.40;;;;;;;;;;4972527;28;20273;-66
2022/09/25 05:59:03;;;;;;;6.13;1.33;;;;;;;;;;4969990;28;20426;-65
2022/09/25 06:01:28;;;;;;;9.32;1.40;;;;;;;;;;4970553;28;20213;-66
2022/09/25 06:03:53;;;;;;;4.65;1.35;;;;;;;;;;4963044;28;20589;-65
2022/09/25 06:06:19;;;;;;;6.93;1.20;;;;;;;;;;4964222;28;20681;-65
2022/09/25 06:08:44;;;;;;;9.00;1.30;;;;;;;;;;4965779;28;20217;-67
2022/09/25 06:11:10;;;;;;;6.80;1.40;;;;;;;;;;4970315;28;20217;-66
2022/09/25 06:13:36;;;;;;;7.38;1.30;;;;;;;;;;4974206;28;20213;-66
2022/09/25 06:16:02;;;;;;;6.45;1.10;;;;;;;;;;4970491;28;20205;-65
2022/09/25 06:18:27;;;;;;;6.28;1.10;;;;;;;;;;4972368;28;20276;-65
2022/09/25 06:20:58;;;;;;;8.48;1.20;;;;;;;;;;4970979;28;20685;-66
2022/09/25 06:23:23;;;;;;;7.57;1.30;;;;;;;;;;4969683;28;20304;-65
2022/09/25 06:25:48;;;;;;;12.82;1.42;;;;;;;;;;4964155;28;20313;-66
2022/09/25 06:28:14;;;;;;;9.57;1.88;;;;;;;;;;4961768;28;20736;-64
2022/09/25 06:30:39;;;;;;;10.15;1.05;;;;;;;;;;4962604;28;20582;-65
2022/09/25 06:33:08;;;;;;;6.30;1.10;;;;;;;;;;4967268;28;20313;-65
2022/09/25 06:35:33;;;;;;;6.07;1.20;;;;;;;;;;4988455;28;20213;-65
2022/09/25 06:37:59;;;;;;;9.88;1.75;;;;;;;;;;4987699;28;20224;-65
2022/09/25 06:40:26;;;;;;;9.00;1.38;;;;;;;;;;4988441;28;20217;-65
2022/09/25 06:42:55;;;;;;;8.73;1.15;;;;;;;;;;4987956;28;20675;-65
2022/09/25 06:45:21;;;;;;;9.50;1.23;;;;;;;;;;4987242;28;20232;-65
2022/09/25 06:47:46;;;;;;;7.80;1.30;;;;;;;;;;4975573;28;20620;-65
2022/09/25 06:50:13;;;;;;;4.68;0.95;;;;;;;;;;4961005;28;20248;-65
2022/09/25 06:52:41;;;;;;;5.13;1.40;;;;;;;;;;4979713;28;20307;-65
2022/09/25 06:55:06;;;;;;;4.57;0.80;;;;;;;;;;4984451;28;20237;-64
2022/09/25 06:57:35;;;;;;;4.63;1.00;;;;;;;;;;4975696;28;20775;-66
2022/09/25 07:00:01;;;;;;;7.22;1.10;;;;;;;;;;4986716;28;20212;-65
2022/09/25 07:05:11;;;;;;;5.32;0.77;;;;;;;;;;4986803;28;20220;-65
2022/09/25 07:07:36;;;;;;;11.10;1.23;;;;;;;;;;4992103;28;20217;-65
2022/09/25 07:10:01;;;;;;;7.70;1.00;;;;;;;;;;4993358;28;20232;-65
2022/09/25 07:12:27;;;;;;;4.60;0.93;;;;;;;;;;4993008;28;20237;-65
2022/09/25 07:14:52;;;;;;;4.75;0.80;;;;;;;;;;4993872;28;20240;-65
2022/09/25 07:17:17;;;;;;;5.95;0.90;;;;;;;;;;4993388;28;20581;-65
2022/09/25 07:19:43;;;;;;;5.63;1.40;;;;;;;;;;4993142;28;20217;-66
2022/09/25 07:22:10;;;;;;;5.97;0.90;;;;;;;;;;4993371;28;20267;-65
2022/09/25 07:24:35;;;;;;;4.22;0.88;;;;;;;;;;4993615;28;20217;-65
2022/09/25 07:27:00;;;;;;;5.47;1.00;;;;;;;;;;4992912;28;20324;-65
2022/09/25 07:29:25;;;;;;;3.75;0.80;;;;;;;;;;4991615;28;20225;-65
2022/09/25 07:31:51;;;;;;;5.60;1.08;;;;;;;;;;4993423;28;20213;-65
2022/09/25 07:34:16;;;;;;;4.50;0.80;;;;;;;;;;4992375;28;20594;-65
2022/09/25 07:36:41;;;;;;;7.47;1.10;;;;;;;;;;4993503;28;20209;-66
2022/09/25 07:39:07;;;;;;;6.35;1.33;;;;;;;;;;4992759;28;20213;-65
2022/09/25 07:41:33;;;;;;;6.47;1.00;;;;;;;;;;4992982;28;20217;-65
2022/09/25 07:43:58;;;;;;;4.40;0.95;;;;;;;;;;4993442;28;20220;-65
2022/09/25 07:46:24;;;;;;;4.60;0.82;;;;;;;;;;4993196;28;20201;-65
2022/09/25 07:48:49;;;;;;;3.63;0.70;;;;;;;;;;4992520;28;20664;-65
2022/09/25 07:51:15;;;;;;;5.82;1.00;;;;;;;;;;4993211;28;20212;-65
2022/09/25 07:53:41;;;;;;;4.55;0.82;;;;;;;;;;4992846;28;20225;-65
2022/09/25 07:56:06;;;;;;;6.57;0.90;;;;;;;;;;4992330;28;20205;-65
2022/09/25 07:58:32;;;;;;;5.90;0.82;;;;;;;;;;4993555;28;20626;-65
2022/09/25 08:00:58;;;;;;;4.03;0.65;;;;;;;;;;4992769;28;20213;-65
2022/09/25 08:03:23;;;;;;;3.08;0.70;;;;;;;;;;4991901;28;20584;-65
2022/09/25 08:05:56;;;;;;;5.07;1.00;;;;;;;;;;4992549;28;20205;-65
2022/09/25 08:08:21;;;;;;;4.60;0.70;;;;;;;;;;4978042;28;20210;-65
2022/09/25 08:10:47;;;;;;;5.95;1.08;;;;;;;;;;4982267;28;20221;-65
2022/09/25 08:13:12;;;;;;;5.25;0.90;;;;;;;;;;4976590;28;20710;-65
2022/09/25 08:15:37;;;;;;;5.05;0.90;;;;;;;;;;4982867;28;20300;-65
2022/09/25 08:18:03;;;;;;;3.38;0.50;;;;;;;;;;4997157;28;20494;-64
2022/09/25 08:20:28;;;;;;;4.50;0.80;;;;;;;;;;4987500;28;20237;-65
2022/09/25 08:22:53;;;;;;;7.57;0.88;;;;;;;;;;4986874;28;20221;-64
2022/09/25 08:25:20;;;;;;;3.70;0.70;;;;;;;;;;4987503;28;20515;-64
2022/09/25 08:27:45;;;;;;;3.70;0.90;;;;;;;;;;4987361;28;20221;-64
2022/09/25 08:30:11;;;;;;;3.90;0.75;;;;;;;;;;4986041;28;20664;-65
2022/09/25 08:32:36;;;;;;;3.08;0.60;;;;;;;;;;5006458;28;20255;-64
2022/09/25 08:35:02;;;;;;;2.85;0.90;;;;;;;;;;5007013;28;20205;-65
2022/09/25 08:37:28;;;;;;;3.15;0.68;;;;;;;;;;5005240;28;20274;-64
2022/09/25 08:39:53;;;;;;;2.72;0.65;;;;;;;;;;5006889;28;20212;-66
2022/09/25 08:42:21;;;;;;;4.35;0.80;;;;;;;;;;5006917;28;20208;-66
2022/09/25 08:44:47;;;;;;;2.15;0.50;;;;;;;;;;5006431;28;20215;-65
2022/09/25 08:50:05;;;;;;;2.47;0.68;;;;;;;;;;5005841;28;20219;-67
2022/09/25 08:52:30;;;;;;;2.38;0.60;;;;;;;;;;4988991;28;20522;-66
2022/09/25 08:54:55;;;;;;;2.28;0.50;;;;;;;;;;4985351;28;20296;-67
2022/09/25 08:57:36;;;;;;;4.30;0.65;;;;;;;;;;4985661;28;20295;-65
2022/09/25 09:00:17;;;;;;;4.53;0.98;;;;;;;;;;4999549;28;20243;-66
2022/09/25 09:02:44;;;;;;;3.72;0.85;;;;;;;;;;5007040;28;20274;-65
2022/09/25 09:05:19;;;;;;;3.33;0.60;;;;;;;;;;5004974;28;20423;-65
2022/09/25 09:07:45;;;;;;;4.22;0.60;;;;;;;;;;5006941;28;20558;-65
2022/09/25 09:10:22;;;;;;;4.00;0.60;;;;;;;;;;4994138;28;20247;-65
2022/09/25 09:12:50;;;;;;;2.88;0.75;;;;;;;;;;4989394;28;20244;-65
2022/09/25 09:15:19;;;;;;;4.53;0.80;;;;;;;;;;4987828;28;20205;-66
2022/09/25 09:17:44;;;;;;;2.78;0.90;;;;;;;;;;4990628;28;20648;-66
2022/09/25 09:20:15;;;;;;;3.72;0.77;;;;;;;;;;4986482;28;20259;-66
2022/09/25 09:22:43;;;;;;;4.28;0.98;;;;;;;;;;4990549;28;20271;-65
2022/09/25 09:25:13;;;;;;;3.60;0.70;;;;;;;;;;4990167;28;20224;-65
2022/09/25 09:27:39;;;;;;;3.20;0.55;;;;;;;;;;4988810;28;20209;-65
2022/09/25 09:30:18;;;;;;;2.80;0.50;;;;;;;;;;4990396;28;20244;-66
2022/09/25 09:32:48;;;;;;;5.60;1.33;;;;;;;;;;4990866;28;20220;-66
2022/09/25 09:35:35;;;;;;;5.70;0.73;;;;;;;;;;4990078;28;20215;-67
2022/09/25 09:38:10;;;;;;;1.55;0.50;;;;;;;;;;5001253;28;20234;-65
2022/09/25 09:40:41;;;;;;;4.78;0.77;;;;;;;;;;5009948;28;20207;-66
2022/09/25 09:43:18;;;;;;;3.80;0.70;;;;;;;;;;5005081;28;20421;-66
2022/09/25 09:45:51;;;;;;;2.83;0.50;;;;;;;;;;4987352;28;20715;-65
2022/09/25 09:48:27;;;;;;;3.05;0.80;;;;;;;;;;4989651;28;20216;-65
2022/09/25 09:50:55;;;;;;;2.50;0.50;;;;;;;;;;4983050;28;20263;-65
2022/09/25 09:53:32;;;;;;;2.80;0.70;;;;;;;;;;4985721;28;20236;-66
2022/09/25 09:56:00;;;;;;;4.00;0.68;;;;;;;;;;4981105;28;20221;-68
2022/09/25 09:58:29;;;;;;;4.50;0.65;;;;;;;;;;4985365;28;20244;-67
2022/09/25 10:00:54;;;;;;;3.80;0.50;;;;;;;;;;4984539;28;20217;-68
2022/09/25 10:03:22;;;;;;;4.07;0.95;;;;;;;;;;4985499;28;20251;-64
2022/09/25 10:05:48;;;;;;;2.75;0.60;;;;;;;;;;4989748;28;20497;-65
2022/09/25 10:08:13;;;;;;;3.40;0.60;;;;;;;;;;4987357;28;20221;-64
2022/09/25 10:10:39;;;;;;;4.43;0.70;;;;;;;;;;4988903;28;20420;-64
2022/09/25 10:13:08;;;;;;;2.33;0.40;;;;;;;;;;4988930;28;20327;-65
2022/09/25 10:15:34;;;;;;;3.50;0.63;;;;;;;;;;4986740;28;20590;-66
2022/09/25 10:18:00;;;;;;;2.60;0.57;;;;;;;;;;4989748;28;20652;-65
2022/09/25 10:20:26;;;;;;;3.63;0.65;;;;;;;;;;4989711;28;20280;-65
2022/09/25 10:22:52;;;;;;;6.00;0.60;;;;;;;;;;4987604;28;20205;-65
2022/09/25 10:25:32;;;;;;;2.03;0.60;;;;;;;;;;4989854;28;20221;-65
2022/09/25 10:27:58;;;;;;;2.63;0.60;;;;;;;;;;4988125;28;20205;-66
2022/09/25 10:30:23;;;;;;;2.92;0.45;;;;;;;;;;4987518;28;20558;-64
2022/09/25 10:32:58;;;;;;;2.65;0.50;;;;;;;;;;4988507;28;20648;-64
2022/09/25 10:35:27;;;;;;;3.72;0.80;;;;;;;;;;4987677;28;20623;-64
2022/09/25 10:37:53;;;;;;;2.53;0.30;;;;;;;;;;4986846;28;20276;-65
2022/09/25 10:40:25;;;;;;;2.97;0.47;;;;;;;;;;4969020;28;20427;-64
2022/09/25 10:43:00;;;;;;;2.53;0.60;;;;;;;;;;4970289;28;20206;-65
2022/09/25 10:45:28;;;;;;;2.03;0.50;;;;;;;;;;4969237;28;20272;-64
2022/09/25 10:50:37;;;;;;;3.70;0.68;;;;;;;;;;4987868;28;20224;-65
2022/09/25 10:53:04;;;;;;;3.35;0.70;;;;;;;;;;4988628;28;20217;-66
2022/09/25 10:55:32;;;;;;;3.28;0.57;;;;;;;;;;4990196;28;20228;-65
2022/09/25 10:58:11;;;;;;;2.45;0.50;;;;;;;;;;4987728;28;20209;-67
2022/09/25 11:00:40;;;;;;;2.60;0.60;;;;;;;;;;4987518;28;20630;-66
2022/09/25 11:03:08;;;;;;;2.00;0.40;;;;;;;;;;4986867;28;20275;-66
2022/09/25 11:05:34;;;;;;;2.95;0.60;;;;;;;;;;4988229;28;20231;-66
2022/09/25 11:08:00;;;;;;;2.67;0.40;;;;;;;;;;4987911;28;20209;-66
2022/09/25 11:10:27;;;;;;;2.90;0.60;;;;;;;;;;4987282;28;20225;-66
2022/09/25 11:12:52;;;;;;;2.58;0.60;;;;;;;;;;4987798;28;20308;-66
2022/09/25 11:15:19;;;;;;;2.08;0.57;;;;;;;;;;4988629;28;20309;-66
2022/09/25 11:17:44;;;;;;;2.13;0.70;;;;;;;;;;4987278;28;20209;-66
2022/09/25 11:20:19;;;;;;;2.25;0.60;;;;;;;;;;4987651;28;20259;-66
2022/09/25 11:22:53;;;;;;;2.33;0.60;;;;;;;;;;4988617;28;20236;-66
2022/09/25 11:25:21;;;;;;;3.20;0.50;;;;;;;;;;4988536;28;20239;-66
2022/09/25 11:27:47;;;;;;;3.42;0.38;;;;;;;;;;4988170;28;20636;-66
2022/09/25 11:30:16;;;;;;;2.25;0.47;;;;;;;;;;4988246;28;20221;-66
2022/09/25 11:32:47;;;;;;;4.47;0.52;;;;;;;;;;4988075;28;20767;-66
2022/09/25 11:35:31;;;;;;;2.08;0.40;;;;;;;;;;4988183;28;20545;-66
2022/09/25 11:38:05;;;;;;;1.55;0.60;;;;;;;;;;4989030;28;20297;-66
2022/09/25 11:43:31;;;;;;;5.22;0.70;;;;;;;;;;4986955;28;20215;-66
2022/09/25 11:46:01;;;;;;;2.53;0.60;;;;;;;;;;4993576;28;20205;-66
2022/09/25 11:48:31;;;;;;;2.78;0.70;;;;;;;;;;4991646;28;20261;-66
2022/09/25 11:50:57;;;;;;;3.55;0.60;;;;;;;;;;4993732;28;20206;-65
2022/09/25 11:53:41;;;;;;;3.40;0.50;;;;;;;;;;4993045;28;20231;-65
2022/09/25 11:56:14;;;;;;;3.75;0.55;;;;;;;;;;4993265;28;20335;-65
2022/09/25 11:58:39;;;;;;;2.38;0.90;;;;;;;;;;4993620;28;20213;-65
2022/09/25 12:01:10;;;;;;;2.35;0.63;;;;;;;;;;4992388;28;20209;-66
2022/09/25 12:03:43;;;;;;;2.85;0.60;;;;;;;;;;4993665;28;20205;-66
2022/09/25 12:06:32;;;;;;;3.25;0.60;;;;;;;;;;4992859;28;20656;-66
2022/09/25 12:08:57;;;;;;;3.03;0.55;;;;;;;;;;4992265;28;20736;-66
2022/09/25 12:11:35;;;;;;;2.50;0.60;;;;;;;;;;4993003;28;20328;-66
2022/09/25 12:14:03;;;;;;;3.08;0.70;;;;;;;;;;5008505;28;20228;-66
2022/09/25 12:16:31;;;;;;;3.55;0.65;;;;;;;;;;4992138;28;20224;-66
2022/09/25 12:18:59;;;;;;;2.28;0.63;;;;;;;;;;4993266;28;20212;-66
2022/09/25 12:21:33;;;;;;;1.52;0.35;;;;;;;;;;4991392;28;20678;-66
2022/09/25 12:24:14;;;;;;;4.10;0.50;;;;;;;;;;4991370;28;20738;-66
2022/09/25 12:26:42;;;;;;;2.80;0.70;;;;;;;;;;4991778;28;20213;-66
2022/09/25 12:29:09;;;;;;;4.32;0.60;;;;;;;;;;4992073;28;20240;-66
2022/09/25 12:31:48;;;;;;;5.20;0.95;;;;;;;;;;4992963;28;20223;-66
2022/09/25 12:34:18;;;;;;;5.30;0.73;;;;;;;;;;4992820;28;20217;-66
2022/09/25 12:36:48;;;;;;;5.35;1.45;;;;;;;;;;4991252;28;20220;-66
2022/09/25 12:39:28;;;;;;;4.40;0.50;;;;;;;;;;4991418;28;20232;-66
2022/09/25 12:42:02;;;;;;;3.55;0.60;;;;;;;;;;4991756;28;20307;-66
2022/09/25 12:44:46;;;;;;;3.60;0.63;;;;;;;;;;4991037;28;20225;-65
2022/09/25 12:47:40;;;;;;;2.97;0.80;;;;;;;;;;4994801;28;20664;-65
2022/09/25 12:50:09;;;;;;;2.85;0.50;;;;;;;;;;4995753;28;20302;-65
2022/09/25 12:52:36;;;;;;;5.10;0.60;;;;;;;;;;4996766;28;20228;-65
2022/09/25 12:55:03;;;;;;;4.30;1.70;;;;;;;;;;4995424;28;20209;-65
2022/09/25 12:57:31;;;;;;;2.05;0.68;;;;;;;;;;4996369;28;20212;-65
2022/09/25 12:59:59;;;;;;;2.53;0.60;;;;;;;;;;4996947;28;20205;-65
2022/09/25 13:02:24;;;;;;;4.18;0.50;;;;;;;;;;4995137;28;20217;-65
2022/09/25 13:04:58;;;;;;;4.78;0.95;;;;;;;;;;4996268;28;20210;-65
2022/09/25 13:07:35;;;;;;;3.20;0.57;;;;;;;;;;4996324;28;20209;-65
2022/09/25 13:10:03;;;;;;;3.75;0.60;;;;;;;;;;4995226;28;20205;-65
2022/09/25 13:12:32;;;;;;;1.85;0.50;;;;;;;;;;4994225;28;20296;-65
2022/09/25 13:15:00;;;;;;;4.30;0.60;;;;;;;;;;4996764;28;20224;-65
2022/09/25 13:17:25;;;;;;;3.88;1.10;;;;;;;;;;4996185;28;20217;-66
2022/09/25 13:19:50;;;;;;;3.35;0.60;;;;;;;;;;4995593;28;20216;-66
2022/09/25 13:22:19;;;;;;;1.65;0.47;;;;;;;;;;4996122;28;20205;-66
2022/09/25 13:24:45;;;;;;;4.43;0.50;;;;;;;;;;4996573;28;20209;-65
2022/09/25 13:27:13;;;;;;;3.10;0.60;;;;;;;;;;4994177;28;20205;-65
2022/09/25 13:29:38;;;;;;;2.08;0.50;;;;;;;;;;4996197;28;20665;-65
2022/09/25 13:32:06;;;;;;;2.30;0.55;;;;;;;;;;4995277;28;20235;-65
2022/09/25 13:34:37;;;;;;;3.92;0.57;;;;;;;;;;4996432;28;20209;-65
2022/09/25 13:37:03;;;;;;;3.30;0.70;;;;;;;;;;4995745;28;20205;-66
2022/09/25 13:42:20;;;;;;;2.80;0.50;;;;;;;;;;4994507;28;20303;-65
2022/09/25 13:44:48;;;;;;;3.15;0.80;;;;;;;;;;4996148;28;20216;-65
2022/09/25 13:47:22;;;;;;;3.75;0.80;;;;;;;;;;4995207;28;20240;-65
2022/09/25 13:49:49;;;;;;;5.75;1.20;;;;;;;;;;4996063;28;20308;-65
2022/09/25 13:53:15;;;;;;;4.28;0.52;;;;;;;;;;4995097;28;20299;-66
2022/09/25 13:55:41;;;;;;;2.38;0.50;;;;;;;;;;4994578;28;20213;-65
2022/09/25 13:58:15;;;;;;;3.80;0.68;;;;;;;;;;4993550;28;20205;-65
2022/09/25 14:00:54;;;;;;;3.40;0.60;;;;;;;;;;4994817;28;20255;-65
2022/09/25 14:03:40;;;;;;;2.95;0.60;;;;;;;;;;4995368;28;20556;-65
2022/09/25 14:06:09;;;;;;;3.17;0.63;;;;;;;;;;4995313;28;20267;-65
2022/09/25 14:08:34;;;;;;;2.67;0.50;;;;;;;;;;4993451;28;20213;-65
2022/09/25 14:11:00;;;;;;;3.33;0.52;;;;;;;;;;4994212;28;20686;-65
2022/09/25 14:13:26;;;;;;;2.63;0.68;;;;;;;;;;4995075;28;20590;-65
2022/09/25 14:15:53;;;;;;;2.67;0.50;;;;;;;;;;4994874;28;20209;-65
2022/09/25 14:18:23;;;;;;;2.95;0.50;;;;;;;;;;4995028;28;20216;-65
2022/09/25 14:20:49;;;;;;;4.20;0.75;;;;;;;;;;4995430;28;20671;-65
2022/09/25 14:23:15;;;;;;;2.60;0.40;;;;;;;;;;4994147;28;20259;-65
2022/09/25 14:25:43;;;;;;;1.73;0.40;;;;;;;;;;4995349;28;20636;-65
2022/09/25 14:28:17;;;;;;;5.90;0.60;;;;;;;;;;4994647;28;20228;-65
2022/09/25 14:31:03;;;;;;;2.28;0.40;;;;;;;;;;4995270;28;20267;-65
2022/09/25 14:33:34;;;;;;;1.90;0.40;;;;;;;;;;4993965;28;20225;-65
2022/09/25 14:36:00;;;;;;;2.28;0.70;;;;;;;;;;4993101;28;20197;-65
2022/09/25 14:38:35;;;;;;;3.38;0.60;;;;;;;;;;4994809;28;20220;-65
2022/09/25 14:41:25;;;;;;;4.20;0.70;;;;;;;;;;4993351;28;20815;-65
2022/09/25 14:44:13;;;;;;;2.97;0.80;;;;;;;;;;4992991;28;20217;-65
2022/09/25 14:46:38;;;;;;;2.95;1.05;;;;;;;;;;4993310;28;20209;-65
2022/09/25 14:49:07;;;;;;;3.53;0.50;;;;;;;;;;4994576;28;20208;-65
2022/09/25 14:51:39;;;;;;;6.10;0.70;;;;;;;;;;4993870;28;20703;-65
2022/09/25 14:54:04;;;;;;;3.50;0.60;;;;;;;;;;4993342;28;20614;-65
2022/09/25 14:56:34;;;;;;;1.63;0.40;;;;;;;;;;4992704;28;20666;-65
2022/09/25 14:59:02;;;;;;;5.75;0.77;;;;;;;;;;4994684;28;20276;-65
2022/09/25 15:01:29;;;;;;;3.95;0.65;;;;;;;;;;4994518;28;20217;-65
2022/09/25 15:03:57;;;;;;;5.50;0.70;;;;;;;;;;4993977;28;20292;-65
2022/09/25 15:06:25;;;;;;;2.20;0.52;;;;;;;;;;4994163;28;20297;-65
2022/09/25 15:08:50;;;;;;;4.05;0.70;;;;;;;;;;4993695;28;20220;-65